Time;durP1;ratioP1;P1;durP2;ratioP2;P2;SDS_P1;SDS_P2;PMS_P1;PMS_P2;Temp;Humidity;BMP_temperature;BMP_pressure;BME280_temperature;BME280_humidity;BME280_pressure;Samples;Min_cycle;Max_cycle;Signal;HPM_P1;HPM_P2
2022/11/28 00:01:48;;;;;;;134.32;55.25;;;;;;;0.94;100.00;100065.22;8423922;28;20082;-75
2022/11/28 00:05:50;;;;;;;136.43;55.42;;;;;;;0.91;100.00;100065.63;8421090;28;20545;-75
2022/11/28 00:09:51;;;;;;;136.00;53.97;;;;;;;0.88;100.00;100056.28;8389767;28;20098;-74
2022/11/28 00:13:53;;;;;;;131.68;54.60;;;;;;;0.88;100.00;100045.63;8428482;28;20081;-75
2022/11/28 00:17:54;;;;;;;130.35;53.33;;;;;;;0.87;100.00;100044.00;8432468;28;20131;-75
2022/11/28 00:21:55;;;;;;;123.43;52.28;;;;;;;0.84;100.00;100033.81;8380186;28;20044;-75
2022/11/28 00:25:57;;;;;;;121.20;53.92;;;;;;;0.76;100.00;100039.41;8432638;28;20040;-75
2022/11/28 00:29:58;;;;;;;118.97;52.75;;;;;;;0.71;100.00;100041.94;8428064;28;20048;-75
2022/11/28 00:34:00;;;;;;;122.03;51.45;;;;;;;0.67;100.00;100035.44;8431307;28;20115;-75
2022/11/28 00:38:01;;;;;;;128.73;52.17;;;;;;;0.61;100.00;100034.47;8429323;28;20071;-74
2022/11/28 00:42:02;;;;;;;126.32;52.05;;;;;;;0.58;100.00;100034.13;8413218;28;20490;-74
2022/11/28 00:46:03;;;;;;;129.10;53.65;;;;;;;0.58;100.00;100040.22;8393060;28;20123;-76
2022/11/28 00:50:05;;;;;;;117.47;50.03;;;;;;;0.55;100.00;100018.59;8394000;28;20128;-75
2022/11/28 00:54:06;;;;;;;119.70;50.47;;;;;;;0.57;100.00;100021.84;8429052;28;20086;-75
2022/11/28 00:58:08;;;;;;;123.28;51.85;;;;;;;0.55;100.00;100014.09;8428536;28;20517;-74
2022/11/28 01:02:08;;;;;;;108.00;48.45;;;;;;;0.55;100.00;100015.94;8431410;28;20052;-75
2022/11/28 01:06:10;;;;;;;112.72;49.08;;;;;;;0.54;100.00;100006.34;8395085;28;20056;-75
2022/11/28 01:10:11;;;;;;;114.63;48.45;;;;;;;0.50;100.00;100015.78;8430893;28;20474;-75
2022/11/28 01:14:12;;;;;;;115.40;50.42;;;;;;;0.48;100.00;100009.91;8409492;28;20395;-76
2022/11/28 01:18:13;;;;;;;116.65;49.33;;;;;;;0.49;100.00;100006.19;8430702;28;20048;-76
2022/11/28 01:22:14;;;;;;;111.32;48.42;;;;;;;0.48;100.00;99999.28;8418402;28;20085;-75
2022/11/28 01:26:22;;;;;;;109.05;47.10;;;;;;;0.41;100.00;99994.84;8430433;28;20040;-76
2022/11/28 01:30:23;;;;;;;112.07;46.13;;;;;;;0.41;100.00;99981.56;8407395;28;20048;-74
2022/11/28 01:34:24;;;;;;;100.63;44.70;;;;;;;0.40;100.00;99971.94;8429259;28;20063;-74
2022/11/28 01:38:26;;;;;;;104.85;46.00;;;;;;;0.38;100.00;99966.03;8424704;28;20079;-74
2022/11/28 01:42:27;;;;;;;107.55;42.85;;;;;;;0.39;100.00;99962.34;8424118;28;20076;-75
2022/11/28 01:46:28;;;;;;;97.75;42.20;;;;;;;0.41;100.00;99965.59;8374200;28;20052;-76
2022/11/28 01:50:30;;;;;;;106.25;43.85;;;;;;;0.41;100.00;99954.97;8386290;28;20052;-75
2022/11/28 01:54:32;;;;;;;106.05;43.80;;;;;;;0.41;100.00;99944.34;8405885;28;20496;-75
2022/11/28 01:58:35;;;;;;;109.53;44.63;;;;;;;0.39;100.00;99940.28;8428548;28;20036;-75
2022/11/28 02:02:47;;;;;;;102.40;42.17;;;;;;;0.33;100.00;99936.66;8408090;28;20394;-74
2022/11/28 02:06:47;;;;;;;86.00;37.78;;;;;;;0.34;100.00;99930.31;8424301;28;20040;-75
2022/11/28 02:10:51;;;;;;;91.15;38.38;;;;;;;0.41;100.00;99923.09;8426272;28;20102;-75
2022/11/28 02:15:14;;;;;;;87.50;37.42;;;;;;;0.39;100.00;99909.19;8426064;28;20048;-75
2022/11/28 02:19:21;;;;;;;83.15;34.92;;;;;;;0.32;100.00;99897.84;8425244;28;20474;-75
2022/11/28 02:23:50;;;;;;;83.93;35.55;;;;;;;0.28;100.00;99901.97;8389891;28;20047;-76
2022/11/28 02:28:05;;;;;;;80.50;34.97;;;;;;;0.27;100.00;99905.66;8425128;28;20051;-75
2022/11/28 02:32:21;;;;;;;79.43;34.92;;;;;;;0.23;100.00;99899.19;8426908;28;20048;-74
2022/11/28 02:36:31;;;;;;;80.72;33.95;;;;;;;0.19;100.00;99898.00;8426460;28;20051;-75
2022/11/28 02:40:39;;;;;;;79.28;34.25;;;;;;;0.18;100.00;99907.00;8354872;28;20089;-74
2022/11/28 02:44:45;;;;;;;88.47;36.00;;;;;;;0.11;100.00;99895.63;8354379;28;20507;-75
2022/11/28 02:48:51;;;;;;;84.28;33.90;;;;;;;0.05;100.00;99912.47;8357053;28;20761;-75
2022/11/28 02:52:55;;;;;;;74.93;33.25;;;;;;;0.01;100.00;99905.94;8350056;28;20045;-74
2022/11/28 02:56:56;;;;;;;72.70;32.05;;;;;;;-0.05;100.00;99906.84;8350222;28;20045;-75
2022/11/28 03:00:57;;;;;;;79.03;32.10;;;;;;;-0.07;100.00;99898.28;8356362;28;20102;-74
2022/11/28 03:05:16;;;;;;;78.03;32.83;;;;;;;-0.10;100.00;99888.91;8345895;28;20484;-75
2022/11/28 03:09:42;;;;;;;74.47;32.22;;;;;;;-0.08;100.00;99896.66;8344572;28;20044;-75
2022/11/28 03:14:00;;;;;;;74.25;31.27;;;;;;;-0.11;100.00;99883.84;8410502;28;20521;-75
2022/11/28 03:18:24;;;;;;;77.57;30.80;;;;;;;-0.14;100.00;99886.91;8417766;28;20145;-75
2022/11/28 03:22:41;;;;;;;90.93;38.90;;;;;;;-0.16;100.00;99883.69;8419246;28;20060;-75
2022/11/28 03:27:01;;;;;;;88.18;39.25;;;;;;;-0.16;100.00;99881.03;8415626;28;20056;-75
2022/11/28 03:31:07;;;;;;;76.75;32.20;;;;;;;-0.22;100.00;99885.38;8399255;28;20084;-75
2022/11/28 03:35:13;;;;;;;75.10;32.30;;;;;;;-0.24;100.00;99881.31;8396672;28;20063;-75
2022/11/28 03:39:18;;;;;;;78.97;31.40;;;;;;;-0.26;100.00;99867.44;8389572;28;20036;-75
2022/11/28 03:43:21;;;;;;;77.88;32.65;;;;;;;-0.26;100.00;99867.44;8405496;28;20048;-74
2022/11/28 03:47:39;;;;;;;73.97;30.50;;;;;;;-0.28;100.00;99865.00;8415358;28;20056;-75
2022/11/28 03:52:03;;;;;;;78.00;31.83;;;;;;;-0.31;100.00;99869.94;8414677;28;20055;-75
2022/11/28 03:56:09;;;;;;;76.28;31.80;;;;;;;-0.33;100.00;99862.22;8427300;28;20048;-75
2022/11/28 04:00:14;;;;;;;72.47;29.50;;;;;;;-0.34;100.00;99859.75;8407493;28;20051;-74
2022/11/28 04:04:32;;;;;;;81.63;32.75;;;;;;;-0.40;100.00;99850.03;8424799;28;20048;-75
2022/11/28 04:08:42;;;;;;;72.03;31.10;;;;;;;-0.40;100.00;99855.34;8432244;28;20048;-74
2022/11/28 04:12:46;;;;;;;73.47;30.08;;;;;;;-0.46;100.00;99847.22;8413993;28;20048;-75
2022/11/28 04:16:52;;;;;;;70.55;30.38;;;;;;;-0.49;100.00;99842.38;8431725;28;20044;-75
2022/11/28 04:21:01;;;;;;;72.72;30.83;;;;;;;-0.50;100.00;99834.59;8409365;28;20456;-75
2022/11/28 04:25:08;;;;;;;73.85;32.88;;;;;;;-0.52;100.00;99848.09;8427909;28;20432;-75
2022/11/28 04:29:13;;;;;;;81.32;32.92;;;;;;;-0.55;100.00;99843.22;8430802;28;20048;-76
2022/11/28 04:33:15;;;;;;;74.88;31.63;;;;;;;-0.58;100.00;99843.66;8413232;28;20059;-75
2022/11/28 04:37:17;;;;;;;77.70;33.05;;;;;;;-0.59;100.00;99839.41;8432925;28;20055;-74
2022/11/28 04:41:20;;;;;;;73.53;30.98;;;;;;;-0.58;100.00;99835.69;8432734;28;20409;-75
2022/11/28 04:45:27;;;;;;;72.82;29.20;;;;;;;-0.63;100.00;99840.84;8422289;28;20052;-75
2022/11/28 04:49:29;;;;;;;74.25;31.92;;;;;;;-0.62;100.00;99845.13;8407813;28;20131;-75
2022/11/28 04:53:38;;;;;;;73.13;31.15;;;;;;;-0.66;100.00;99835.97;8355508;28;20052;-75
2022/11/28 04:57:43;;;;;;;81.32;33.00;;;;;;;-0.67;100.00;99839.66;8389290;28;20105;-75
2022/11/28 05:01:45;;;;;;;83.38;32.63;;;;;;;-0.66;100.00;99835.97;8411724;28;20123;-74
2022/11/28 05:05:50;;;;;;;96.72;36.17;;;;;;;-0.66;100.00;99825.38;8413529;28;20036;-74
2022/11/28 05:09:51;;;;;;;81.22;32.80;;;;;;;-0.65;100.00;99842.91;8431224;28;20039;-74
2022/11/28 05:13:53;;;;;;;86.53;36.30;;;;;;;-0.67;100.00;99831.69;8394863;28;20097;-73
2022/11/28 05:17:54;;;;;;;92.90;35.38;;;;;;;-0.69;100.00;99825.81;8429399;28;20503;-75
2022/11/28 05:21:55;;;;;;;83.65;33.80;;;;;;;-0.68;100.00;99832.72;8428288;28;20040;-74
2022/11/28 05:25:56;;;;;;;90.00;36.42;;;;;;;-0.69;100.00;99825.81;8423522;28;20486;-75
2022/11/28 05:29:57;;;;;;;92.20;37.30;;;;;;;-0.69;100.00;99831.13;8426146;28;20078;-74
2022/11/28 05:33:58;;;;;;;91.80;36.83;;;;;;;-0.69;100.00;99825.00;8429687;28;20048;-74
2022/11/28 05:37:59;;;;;;;101.68;38.85;;;;;;;-0.69;100.00;99825.81;8430805;28;20562;-74
2022/11/28 05:42:01;;;;;;;108.57;40.88;;;;;;;-0.69;100.00;99820.53;8430124;28;20136;-74
2022/11/28 05:46:04;;;;;;;109.50;39.65;;;;;;;-0.68;100.00;99814.16;8430405;28;20048;-74
2022/11/28 05:50:07;;;;;;;99.38;39.10;;;;;;;-0.68;100.00;99827.41;8427568;28;20060;-75
2022/11/28 05:54:08;;;;;;;96.35;38.72;;;;;;;-0.70;100.00;99824.19;8418780;28;20058;-75
2022/11/28 05:58:10;;;;;;;105.10;40.85;;;;;;;-0.70;100.00;99824.19;8394130;28;20044;-74
2022/11/28 06:02:11;;;;;;;102.25;38.25;;;;;;;-0.73;100.00;99823.78;8429444;28;20077;-75
2022/11/28 06:06:15;;;;;;;95.30;38.60;;;;;;;-0.79;100.00;99814.88;8375438;28;20067;-75
2022/11/28 06:10:16;;;;;;;90.05;37.78;;;;;;;-0.82;100.00;99819.81;8429248;28;20077;-74
2022/11/28 06:14:17;;;;;;;83.65;37.40;;;;;;;-0.88;100.00;99826.78;8428849;28;20046;-74
2022/11/28 06:18:19;;;;;;;93.10;39.58;;;;;;;-0.89;100.00;99819.84;8429026;28;20051;-74
2022/11/28 06:22:20;;;;;;;95.57;38.17;;;;;;;-0.89;100.00;99809.25;8392983;28;20525;-75
2022/11/28 06:26:22;;;;;;;98.55;41.35;;;;;;;-0.92;100.00;99809.69;8351181;28;20044;-75
2022/11/28 06:30:23;;;;;;;96.63;39.00;;;;;;;-0.91;100.00;99800.72;8428715;28;20040;-75
2022/11/28 06:34:26;;;;;;;99.10;40.53;;;;;;;-0.95;100.00;99799.50;8376184;28;20197;-74
2022/11/28 06:38:27;;;;;;;96.45;39.88;;;;;;;-0.93;100.00;99808.06;8428309;28;20491;-74
2022/11/28 06:42:28;;;;;;;95.93;38.80;;;;;;;-0.89;100.00;99798.63;8427962;28;20063;-74
2022/11/28 06:46:29;;;;;;;99.70;40.53;;;;;;;-0.87;100.00;99801.91;8427836;28;20055;-74
2022/11/28 06:50:31;;;;;;;96.55;39.85;;;;;;;-0.84;100.00;99806.75;8357194;28;20045;-74
2022/11/28 06:54:32;;;;;;;104.78;42.75;;;;;;;-0.81;100.00;99787.78;8420395;28;20121;-75
2022/11/28 06:58:34;;;;;;;103.18;42.88;;;;;;;-0.80;100.00;99786.75;8427719;28;20178;-75
2022/11/28 07:02:35;;;;;;;97.47;41.10;;;;;;;-0.77;100.00;99794.25;8427584;28;20040;-74
2022/11/28 07:06:36;;;;;;;96.45;41.75;;;;;;;-0.76;100.00;99787.94;8409393;28;20135;-75
2022/11/28 07:10:37;;;;;;;105.82;41.70;;;;;;;-0.74;100.00;99796.47;8353347;28;20051;-75
2022/11/28 07:14:38;;;;;;;110.15;44.15;;;;;;;-0.68;100.00;99790.28;8426951;28;20047;-75
2022/11/28 07:18:39;;;;;;;110.47;45.25;;;;;;;-0.63;100.00;99787.78;8427093;28;20090;-74
2022/11/28 07:22:41;;;;;;;104.13;44.53;;;;;;;-0.61;100.00;99791.03;8427036;28;20048;-75
2022/11/28 07:26:43;;;;;;;102.43;44.05;;;;;;;-0.62;100.00;99789.41;8427229;28;20048;-75
2022/11/28 07:30:44;;;;;;;111.43;46.40;;;;;;;-0.58;100.00;99779.97;8426968;28;20126;-74
2022/11/28 07:34:46;;;;;;;121.07;49.00;;;;;;;-0.52;100.00;99773.78;8409081;28;20072;-75
2022/11/28 07:38:52;;;;;;;121.60;49.90;;;;;;;-0.51;100.00;99780.72;8426802;28;20090;-74
2022/11/28 07:42:53;;;;;;;162.30;63.85;;;;;;;-0.49;100.00;99777.88;8426701;28;20413;-74
2022/11/28 07:46:54;;;;;;;147.48;57.15;;;;;;;-0.50;100.00;99774.41;8426866;28;20055;-74
2022/11/28 07:50:55;;;;;;;139.93;57.75;;;;;;;-0.46;100.00;99780.88;8426803;28;20094;-74
2022/11/28 07:54:56;;;;;;;140.77;58.33;;;;;;;-0.35;100.00;99783.81;8426414;28;20072;-75
2022/11/28 07:58:59;;;;;;;126.50;54.20;;;;;;;-0.17;100.00;99770.56;8426502;28;20068;-74
2022/11/28 08:02:59;;;;;;;141.93;58.17;;;;;;;0.03;100.00;99770.31;8426312;28;20055;-74
2022/11/28 08:07:01;;;;;;;150.75;63.55;;;;;;;0.13;100.00;99776.72;8390578;28;20048;-75
2022/11/28 08:11:04;;;;;;;140.65;57.20;;;;;;;0.24;100.00;99773.28;8426281;28;20048;-75
2022/11/28 08:15:08;;;;;;;136.07;55.95;;;;;;;0.33;100.00;99771.94;8426338;28;20406;-74
2022/11/28 08:19:10;;;;;;;123.90;52.90;;;;;;;0.40;100.00;99767.34;8426171;28;20100;-75
2022/11/28 08:23:11;;;;;;;126.57;53.92;;;;;;;0.48;100.00;99778.69;8390496;28;20036;-74
2022/11/28 08:27:12;;;;;;;119.22;49.55;;;;;;;0.56;100.00;99775.69;8426001;28;20061;-75
2022/11/28 08:31:24;;;;;;;126.07;52.25;;;;;;;0.59;100.00;99764.59;8428120;28;20048;-74
2022/11/28 08:35:24;;;;;;;116.45;51.42;;;;;;;0.69;100.00;99764.84;8432326;28;20108;-75
2022/11/28 08:39:26;;;;;;;117.63;48.22;;;;;;;0.77;100.00;99764.53;8432810;28;20060;-75
2022/11/28 08:43:30;;;;;;;110.55;47.08;;;;;;;0.82;100.00;99756.69;8396171;28;20048;-75
2022/11/28 08:47:34;;;;;;;113.32;48.42;;;;;;;0.86;100.00;99760.50;8432173;28;20044;-75
2022/11/28 08:51:35;;;;;;;104.13;46.25;;;;;;;0.95;100.00;99759.13;8396035;28;20102;-74
2022/11/28 08:55:37;;;;;;;98.25;46.95;;;;;;;0.98;100.00;99753.34;8413925;28;20051;-75
2022/11/28 08:59:38;;;;;;;107.05;46.67;;;;;;;1.02;100.00;99738.53;8431627;28;20048;-75
2022/11/28 09:03:40;;;;;;;102.32;46.05;;;;;;;1.06;100.00;99734.38;8431043;28;20077;-75
2022/11/28 09:07:41;;;;;;;108.32;48.63;;;;;;;1.12;100.00;99738.78;8431398;28;20048;-75
2022/11/28 09:11:42;;;;;;;107.78;47.75;;;;;;;1.17;100.00;99725.59;8431715;28;20068;-75
2022/11/28 09:15:45;;;;;;;108.00;47.55;;;;;;;1.25;100.00;99716.44;8418590;28;20039;-75
2022/11/28 09:19:46;;;;;;;110.25;47.83;;;;;;;1.30;100.00;99710.44;8418347;28;20505;-74
2022/11/28 09:23:47;;;;;;;108.53;45.30;;;;;;;1.42;100.00;99705.91;8418193;28;20057;-75
2022/11/28 09:27:48;;;;;;;102.32;44.95;;;;;;;1.45;100.00;99705.41;8430819;28;20464;-74
2022/11/28 09:31:49;;;;;;;110.05;48.35;;;;;;;1.54;100.00;99693.34;8417752;28;20048;-75
2022/11/28 09:35:50;;;;;;;105.85;44.55;;;;;;;1.64;100.00;99699.69;8417568;28;20391;-74
2022/11/28 09:39:51;;;;;;;97.43;43.13;;;;;;;1.73;100.00;99692.16;8430686;28;20040;-74
2022/11/28 09:44:07;;;;;;;111.95;46.03;;;;;;;1.83;100.00;99680.88;8429674;28;20484;-75
2022/11/28 09:48:34;;;;;;;106.65;44.78;;;;;;;1.91;100.00;99683.97;8411730;28;20048;-74
2022/11/28 09:53:02;;;;;;;92.68;42.70;;;;;;;1.93;100.00;99675.75;8430132;28;20044;-74
2022/11/28 09:57:10;;;;;;;94.53;42.10;;;;;;;1.98;100.00;99668.66;8429760;28;20048;-74
2022/11/28 10:01:23;;;;;;;100.97;42.60;;;;;;;2.10;100.00;99672.09;8429557;28;20074;-74
2022/11/28 10:05:37;;;;;;;94.78;42.03;;;;;;;2.18;100.00;99662.88;8418290;28;20139;-74
2022/11/28 10:09:56;;;;;;;99.65;42.55;;;;;;;2.25;100.00;99662.72;8377114;28;20048;-74
2022/11/28 10:14:03;;;;;;;90.95;41.75;;;;;;;2.33;100.00;99654.31;8377346;28;20399;-75
2022/11/28 10:18:27;;;;;;;87.82;40.22;;;;;;;2.33;100.00;99659.66;8429268;28;20097;-74
2022/11/28 10:22:49;;;;;;;84.47;39.78;;;;;;;2.32;100.00;99652.72;8429033;28;20055;-75
2022/11/28 10:26:56;;;;;;;89.05;40.83;;;;;;;2.31;100.00;99641.25;8388137;28;20052;-74
2022/11/28 10:31:07;;;;;;;86.17;39.10;;;;;;;2.47;100.00;99644.97;8393419;28;20048;-75
2022/11/28 10:35:31;;;;;;;88.60;38.80;;;;;;;2.58;100.00;99641.44;8428835;28;20082;-74
2022/11/28 10:39:34;;;;;;;80.05;37.47;;;;;;;2.69;100.00;99643.19;8393018;28;20051;-74
2022/11/28 10:43:50;;;;;;;88.13;39.97;;;;;;;2.87;100.00;99628.75;8410885;28;20055;-75
2022/11/28 10:48:14;;;;;;;86.40;38.80;;;;;;;2.93;100.00;99628.59;8411331;28;20194;-75
2022/11/28 10:52:18;;;;;;;85.00;38.47;;;;;;;3.11;100.00;99629.38;8410060;28;20044;-74
2022/11/28 10:56:34;;;;;;;73.95;36.17;;;;;;;3.29;100.00;99626.38;8427527;28;20085;-75
2022/11/28 11:00:36;;;;;;;75.18;34.47;;;;;;;3.40;100.00;99620.09;8417270;28;20051;-75
2022/11/28 11:04:37;;;;;;;69.53;32.78;;;;;;;3.52;100.00;99618.13;8410245;28;20105;-76
2022/11/28 11:08:40;;;;;;;76.47;35.15;;;;;;;3.67;100.00;99618.28;8410325;28;20052;-75
2022/11/28 11:12:41;;;;;;;76.18;34.78;;;;;;;3.89;100.00;99628.13;8426883;28;20048;-74
2022/11/28 11:16:58;;;;;;;75.88;35.25;;;;;;;4.07;100.00;99617.09;8415819;28;20052;-75
2022/11/28 11:21:15;;;;;;;67.90;32.30;;;;;;;4.20;100.00;99606.78;8427811;28;20054;-75
2022/11/28 11:25:19;;;;;;;77.32;34.65;;;;;;;4.31;100.00;99601.50;8416354;28;20053;-75
2022/11/28 11:29:24;;;;;;;73.30;32.65;;;;;;;4.24;99.23;99612.41;8413041;28;20434;-75
2022/11/28 11:33:30;;;;;;;68.47;31.52;;;;;;;4.27;100.00;99605.75;8375382;28;20059;-75
2022/11/28 11:37:37;;;;;;;54.78;28.33;;;;;;;4.40;100.00;99595.41;8404487;28;20109;-76
2022/11/28 11:41:43;;;;;;;60.88;28.48;;;;;;;4.52;99.39;99598.72;8402440;28;20044;-74
2022/11/28 11:45:44;;;;;;;64.45;28.23;;;;;;;4.57;97.92;99596.09;8413691;28;20421;-75
2022/11/28 11:49:49;;;;;;;57.00;27.35;;;;;;;4.66;98.16;99589.19;8414428;28;20127;-75
2022/11/28 11:54:13;;;;;;;55.75;25.92;;;;;;;4.76;96.66;99579.63;8427459;28;20048;-74
2022/11/28 11:58:18;;;;;;;57.10;25.88;;;;;;;4.70;96.68;99584.13;8323838;28;20128;-75
2022/11/28 12:02:41;;;;;;;56.55;26.52;;;;;;;4.72;96.62;99570.47;8241992;28;20050;-75
2022/11/28 12:06:47;;;;;;;51.63;26.05;;;;;;;4.61;95.96;99570.44;8295156;28;20049;-75
2022/11/28 12:10:53;;;;;;;47.80;23.75;;;;;;;4.61;96.45;99570.44;8297656;28;20046;-74
2022/11/28 12:14:54;;;;;;;54.80;24.42;;;;;;;4.58;96.14;99565.59;8264669;28;20037;-74
2022/11/28 12:19:10;;;;;;;57.45;26.40;;;;;;;4.52;95.58;99566.63;8297536;28;20056;-75
2022/11/28 12:23:41;;;;;;;56.45;26.95;;;;;;;4.49;95.28;99561.00;8297516;28;20053;-75
2022/11/28 12:27:52;;;;;;;56.40;27.63;;;;;;;4.50;95.43;99560.72;8297036;28;20090;-74
2022/11/28 12:32:07;;;;;;;57.72;26.52;;;;;;;4.56;95.07;99557.03;8296610;28;20050;-74
2022/11/28 12:36:28;;;;;;;52.10;24.92;;;;;;;4.61;94.10;99554.38;8386924;28;20087;-75
2022/11/28 12:40:37;;;;;;;58.13;26.10;;;;;;;4.48;93.85;99554.84;8378151;28;20067;-76
2022/11/28 12:45:03;;;;;;;57.72;25.48;;;;;;;4.49;93.74;99551.09;8433465;28;20075;-75
2022/11/28 12:49:19;;;;;;;59.90;26.40;;;;;;;4.33;94.18;99559.28;8420467;28;20044;-75
2022/11/28 12:53:39;;;;;;;54.72;25.70;;;;;;;4.33;93.97;99552.06;8431961;28;20048;-74
2022/11/28 12:58:08;;;;;;;46.35;24.48;;;;;;;4.43;93.80;99552.13;8432460;28;20052;-74
2022/11/28 13:02:34;;;;;;;46.40;23.88;;;;;;;4.44;93.65;99564.41;8296245;28;20092;-74
2022/11/28 13:06:37;;;;;;;53.28;24.48;;;;;;;4.45;93.88;99560.69;8295532;28;20540;-75
2022/11/28 13:10:44;;;;;;;49.75;24.58;;;;;;;4.48;93.63;99559.38;8295832;28;20484;-75
2022/11/28 13:14:45;;;;;;;53.83;25.42;;;;;;;4.48;93.33;99549.50;8268137;28;20058;-75
2022/11/28 13:19:03;;;;;;;55.72;25.75;;;;;;;4.46;93.66;99546.25;8281860;28;20057;-75
2022/11/28 13:23:27;;;;;;;56.70;26.30;;;;;;;4.48;94.33;99546.81;8278442;28;20046;-75
2022/11/28 13:28:19;;;;;;;52.80;25.02;;;;;;;4.61;94.39;99549.03;8295617;28;20037;-75
2022/11/28 13:32:32;;;;;;;53.80;25.35;;;;;;;4.68;94.21;99549.59;8198278;28;20054;-76
2022/11/28 13:36:59;;;;;;;51.47;24.73;;;;;;;4.59;94.26;99545.81;8199821;28;20509;-75
2022/11/28 13:41:09;;;;;;;54.20;24.90;;;;;;;4.33;94.74;99541.38;8134737;29;20052;-75
2022/11/28 13:45:20;;;;;;;56.30;26.10;;;;;;;4.13;95.39;99535.84;8165967;29;20067;-75
2022/11/28 13:49:24;;;;;;;55.60;25.67;;;;;;;4.09;95.63;99540.09;8166495;29;20047;-75
2022/11/28 13:53:25;;;;;;;53.03;25.83;;;;;;;4.00;95.96;99544.31;8166054;29;20055;-75
2022/11/28 13:57:36;;;;;;;56.90;26.60;;;;;;;3.81;96.25;99544.69;8174928;28;20513;-75
2022/11/28 14:01:45;;;;;;;56.17;25.95;;;;;;;3.62;97.10;99551.47;8148972;29;20047;-75
2022/11/28 14:05:53;;;;;;;57.92;28.17;;;;;;;3.53;97.57;99536.97;8193754;28;20084;-75
2022/11/28 14:10:11;;;;;;;58.22;26.23;;;;;;;3.47;97.39;99548.63;8261589;28;20505;-75
2022/11/28 14:14:40;;;;;;;54.07;25.13;;;;;;;3.33;97.79;99542.09;8245440;28;20093;-75
2022/11/28 14:19:03;;;;;;;50.33;24.03;;;;;;;3.22;97.91;99545.72;8388357;28;20056;-74
2022/11/28 14:23:26;;;;;;;53.55;24.83;;;;;;;3.10;98.40;99537.00;8416471;28;20036;-75
2022/11/28 14:27:38;;;;;;;63.45;27.83;;;;;;;2.97;99.07;99539.00;8403003;28;20056;-74
2022/11/28 14:31:44;;;;;;;62.15;26.58;;;;;;;2.89;99.08;99542.13;8411458;28;20252;-76
2022/11/28 14:35:50;;;;;;;61.92;27.42;;;;;;;2.80;99.42;99543.56;8366451;28;20098;-75
2022/11/28 14:39:54;;;;;;;56.72;28.40;;;;;;;2.72;99.72;99538.69;8429313;28;20068;-75
2022/11/28 14:44:33;;;;;;;73.50;30.67;;;;;;;2.65;99.88;99546.03;8410978;28;20067;-74
2022/11/28 14:48:38;;;;;;;60.83;29.55;;;;;;;2.60;100.00;99543.31;8379797;28;20044;-75
2022/11/28 14:52:40;;;;;;;67.78;29.52;;;;;;;2.59;100.00;99544.38;8415468;28;20436;-75
2022/11/28 14:56:42;;;;;;;60.45;30.63;;;;;;;2.59;100.00;99547.06;8428449;28;20086;-75
2022/11/28 15:00:52;;;;;;;67.05;30.50;;;;;;;2.57;100.00;99549.16;8428282;28;20563;-75
2022/11/28 15:05:35;;;;;;;60.67;29.63;;;;;;;2.51;100.00;99558.13;8428203;28;20040;-75
2022/11/28 15:10:13;;;;;;;67.00;30.13;;;;;;;2.42;100.00;99556.94;8259107;28;20512;-74
2022/11/28 15:14:22;;;;;;;64.18;30.63;;;;;;;2.33;100.00;99555.72;8163448;29;20122;-75
2022/11/28 15:18:23;;;;;;;;;;;;;;;2.29;100.00;99559.91;8156603;29;20059;-75
2022/11/28 15:22:30;;;;;;;76.07;35.17;;;;;;;2.26;100.00;99563.09;8163469;29;20328;-74
2022/11/28 15:26:31;;;;;;;70.85;31.98;;;;;;;2.23;100.00;99558.22;8163299;29;20055;-75
2022/11/28 15:30:32;;;;;;;64.75;30.15;;;;;;;2.15;100.00;99558.66;8163193;29;20066;-75
2022/11/28 15:34:35;;;;;;;75.72;33.42;;;;;;;2.09;100.00;99558.56;8139648;29;20171;-75
2022/11/28 15:38:37;;;;;;;80.30;34.97;;;;;;;2.03;100.00;99562.19;8131194;29;20043;-74
2022/11/28 15:42:38;;;;;;;77.13;33.67;;;;;;;2.02;100.00;99552.59;8162761;29;20082;-75
2022/11/28 15:46:39;;;;;;;64.88;31.73;;;;;;;1.98;100.00;99556.78;8263505;28;20145;-75
2022/11/28 15:50:49;;;;;;;67.85;30.33;;;;;;;1.98;100.00;99562.13;8331923;28;20051;-75
2022/11/28 15:54:50;;;;;;;69.18;29.52;;;;;;;1.95;100.00;99562.59;8427353;28;20049;-74
2022/11/28 15:58:52;;;;;;;66.10;31.17;;;;;;;2.01;100.00;99556.28;8339984;28;20048;-74
2022/11/28 16:02:53;;;;;;;65.40;30.58;;;;;;;2.09;100.00;99555.91;8390243;28;20109;-75
2022/11/28 16:06:56;;;;;;;64.55;31.08;;;;;;;2.19;100.00;99565.09;8343154;28;20413;-75
2022/11/28 16:10:59;;;;;;;68.63;30.65;;;;;;;2.26;100.00;99557.75;8427119;28;20559;-75
2022/11/28 16:15:00;;;;;;;66.55;31.20;;;;;;;2.34;100.00;99568.00;8396682;28;20147;-75
2022/11/28 16:19:07;;;;;;;70.32;32.30;;;;;;;2.45;100.00;99567.09;8426508;28;20059;-75
2022/11/28 16:23:22;;;;;;;81.70;37.25;;;;;;;2.56;100.00;99558.19;8401758;28;20338;-75
2022/11/28 16:27:30;;;;;;;105.82;44.33;;;;;;;2.63;100.00;99574.84;8322539;28;20049;-74
2022/11/28 16:31:32;;;;;;;99.53;43.58;;;;;;;2.69;100.00;99557.84;8323161;28;20050;-75
2022/11/28 16:35:40;;;;;;;74.38;33.70;;;;;;;2.76;100.00;99569.13;8322494;28;20045;-75
2022/11/28 16:39:41;;;;;;;63.00;31.30;;;;;;;2.79;100.00;99558.00;8307345;28;20054;-75
2022/11/28 16:43:46;;;;;;;68.45;32.25;;;;;;;2.84;99.94;99560.72;8320847;28;20058;-75
2022/11/28 16:47:54;;;;;;;71.20;32.47;;;;;;;2.87;100.00;99560.22;8305115;28;20057;-75
2022/11/28 16:52:20;;;;;;;77.35;32.55;;;;;;;2.93;99.34;99569.91;8278693;28;20057;-76
2022/11/28 16:56:24;;;;;;;64.60;32.13;;;;;;;2.91;99.31;99556.00;8322326;28;20281;-78
2022/11/28 17:00:26;;;;;;;71.03;32.05;;;;;;;2.94;99.15;99563.53;8356614;28;20147;-78
2022/11/28 17:04:29;;;;;;;75.07;33.45;;;;;;;2.90;99.38;99559.75;8340298;28;20045;-76
2022/11/28 17:08:30;;;;;;;70.32;31.48;;;;;;;2.92;99.33;99557.63;8351847;28;20577;-75
2022/11/28 17:12:38;;;;;;;74.32;33.33;;;;;;;2.84;99.38;99555.38;8361707;28;20044;-74
2022/11/28 17:16:40;;;;;;;75.47;33.55;;;;;;;2.86;99.35;99553.25;8336654;28;20052;-76
2022/11/28 17:20:40;;;;;;;78.57;34.63;;;;;;;2.82;99.53;99557.47;8361314;28;20178;-77
2022/11/28 17:24:42;;;;;;;80.20;34.60;;;;;;;2.85;99.79;99557.00;8361061;28;20052;-76
2022/11/28 17:28:43;;;;;;;74.65;33.78;;;;;;;2.91;99.35;99556.00;8363104;28;20966;-77
2022/11/28 17:32:50;;;;;;;78.95;34.90;;;;;;;2.92;99.31;99552.28;8361803;28;20368;-76
2022/11/28 17:36:51;;;;;;;79.85;35.22;;;;;;;2.92;99.37;99559.47;8326834;28;20061;-78
2022/11/28 17:40:52;;;;;;;73.22;32.75;;;;;;;2.89;99.25;99558.13;8360941;28;20144;-77
2022/11/28 17:44:54;;;;;;;71.90;32.42;;;;;;;2.90;99.19;99549.06;8406827;28;20080;-76
2022/11/28 17:48:56;;;;;;;73.43;34.72;;;;;;;2.90;99.29;99565.06;8426867;28;20138;-78
2022/11/28 17:52:57;;;;;;;72.43;33.20;;;;;;;2.88;99.57;99551.16;8424383;28;20162;-78
2022/11/28 17:56:58;;;;;;;86.82;36.60;;;;;;;2.92;99.62;99552.28;8427979;28;20056;-76
2022/11/28 18:01:00;;;;;;;82.20;37.15;;;;;;;2.90;99.53;99551.72;8430160;28;20131;-75
2022/11/28 18:05:01;;;;;;;78.38;36.45;;;;;;;2.94;99.51;99550.19;8430085;28;20040;-75
2022/11/28 18:09:04;;;;;;;85.28;36.92;;;;;;;2.97;99.46;99560.34;8378119;28;20399;-75
2022/11/28 18:13:06;;;;;;;82.30;36.95;;;;;;;3.02;99.35;99558.78;8425823;28;20040;-75
2022/11/28 18:17:07;;;;;;;85.07;35.30;;;;;;;2.97;99.41;99560.34;8421753;28;20104;-75
2022/11/28 18:21:09;;;;;;;85.32;37.38;;;;;;;2.98;99.39;99561.97;8429925;28;20036;-75
2022/11/28 18:25:10;;;;;;;77.75;35.13;;;;;;;2.93;99.31;99559.22;8429988;28;20151;-75
2022/11/28 18:29:11;;;;;;;86.55;37.22;;;;;;;2.92;99.58;99560.28;8421909;28;20040;-75
2022/11/28 18:33:13;;;;;;;79.97;35.22;;;;;;;3.00;99.55;99552.91;8412045;28;20048;-75
2022/11/28 18:37:14;;;;;;;84.85;36.72;;;;;;;3.03;99.40;99552.41;8409567;28;20052;-76
2022/11/28 18:41:16;;;;;;;78.28;37.90;;;;;;;3.02;99.44;99556.13;8428612;28;20076;-75
2022/11/28 18:45:17;;;;;;;85.90;38.00;;;;;;;3.01;99.71;99559.88;8393803;28;20057;-76
2022/11/28 18:49:19;;;;;;;90.15;41.25;;;;;;;3.03;99.66;99552.41;8394608;28;20044;-76